sensor_id;sensor_type;location;lat;lon;timestamp;P1;durP1;ratioP1;P2;durP2;ratioP2
42682;SDS011;28293;50.930;3.464;2023-09-07T00:00:48;16.23;;;12.75;;
42682;SDS011;28293;50.930;3.464;2023-09-07T00:03:14;15.30;;;13.50;;
42682;SDS011;28293;50.930;3.464;2023-09-07T00:05:40;17.65;;;14.85;;
42682;SDS011;28293;50.930;3.464;2023-09-07T00:08:06;15.98;;;13.40;;
42682;SDS011;28293;50.930;3.464;2023-09-07T00:10:32;13.35;;;11.95;;
42682;SDS011;28293;50.930;3.464;2023-09-07T00:13:00;15.45;;;12.93;;
42682;SDS011;28293;50.930;3.464;2023-09-07T00:15:27;15.18;;;13.52;;
42682;SDS011;28293;50.930;3.464;2023-09-07T00:17:53;14.88;;;13.25;;
42682;SDS011;28293;50.930;3.464;2023-09-07T00:20:20;14.80;;;12.90;;
42682;SDS011;28293;50.930;3.464;2023-09-07T00:22:46;15.15;;;12.82;;
42682;SDS011;28293;50.930;3.464;2023-09-07T00:25:12;15.88;;;12.13;;
42682;SDS011;28293;50.930;3.464;2023-09-07T00:27:38;12.93;;;11.63;;
42682;SDS011;28293;50.930;3.464;2023-09-07T00:30:04;16.73;;;12.52;;
42682;SDS011;28293;50.930;3.464;2023-09-07T00:32:35;14.95;;;12.27;;
42682;SDS011;28293;50.930;3.464;2023-09-07T00:35:01;13.82;;;12.35;;
42682;SDS011;28293;50.930;3.464;2023-09-07T00:37:27;13.68;;;12.15;;
42682;SDS011;28293;50.930;3.464;2023-09-07T00:39:53;13.65;;;12.15;;
42682;SDS011;28293;50.930;3.464;2023-09-07T00:42:18;14.50;;;12.95;;
42682;SDS011;28293;50.930;3.464;2023-09-07T00:44:44;15.90;;;14.30;;
42682;SDS011;28293;50.930;3.464;2023-09-07T00:47:10;15.43;;;13.27;;
42682;SDS011;28293;50.930;3.464;2023-09-07T00:49:36;15.25;;;13.57;;
42682;SDS011;28293;50.930;3.464;2023-09-07T00:52:04;15.18;;;13.55;;
42682;SDS011;28293;50.930;3.464;2023-09-07T00:54:30;15.65;;;12.55;;
42682;SDS011;28293;50.930;3.464;2023-09-07T00:56:56;17.60;;;15.30;;
42682;SDS011;28293;50.930;3.464;2023-09-07T00:59:22;18.02;;;15.95;;
42682;SDS011;28293;50.930;3.464;2023-09-07T01:01:48;17.30;;;15.48;;
42682;SDS011;28293;50.930;3.464;2023-09-07T01:04:14;19.95;;;16.05;;
42682;SDS011;28293;50.930;3.464;2023-09-07T01:06:42;18.40;;;15.50;;
42682;SDS011;28293;50.930;3.464;2023-09-07T01:09:23;17.90;;;15.48;;
42682;SDS011;28293;50.930;3.464;2023-09-07T01:11:51;18.52;;;16.63;;
42682;SDS011;28293;50.930;3.464;2023-09-07T01:14:17;23.73;;;17.67;;
42682;SDS011;28293;50.930;3.464;2023-09-07T01:16:43;18.42;;;16.52;;
42682;SDS011;28293;50.930;3.464;2023-09-07T01:19:09;20.95;;;17.48;;
42682;SDS011;28293;50.930;3.464;2023-09-07T01:21:37;19.77;;;17.67;;
42682;SDS011;28293;50.930;3.464;2023-09-07T01:24:08;21.77;;;19.48;;
42682;SDS011;28293;50.930;3.464;2023-09-07T01:26:35;19.92;;;17.70;;
42682;SDS011;28293;50.930;3.464;2023-09-07T01:29:07;23.10;;;19.80;;
42682;SDS011;28293;50.930;3.464;2023-09-07T01:31:37;21.42;;;19.15;;
42682;SDS011;28293;50.930;3.464;2023-09-07T01:34:03;22.75;;;19.92;;
42682;SDS011;28293;50.930;3.464;2023-09-07T01:36:30;22.13;;;19.83;;
42682;SDS011;28293;50.930;3.464;2023-09-07T01:38:55;21.23;;;19.02;;
42682;SDS011;28293;50.930;3.464;2023-09-07T01:41:21;22.52;;;19.90;;
42682;SDS011;28293;50.930;3.464;2023-09-07T01:43:47;22.33;;;19.05;;
42682;SDS011;28293;50.930;3.464;2023-09-07T01:46:13;20.60;;;18.38;;
42682;SDS011;28293;50.930;3.464;2023-09-07T01:48:39;20.70;;;18.50;;
42682;SDS011;28293;50.930;3.464;2023-09-07T01:51:04;20.45;;;18.45;;
42682;SDS011;28293;50.930;3.464;2023-09-07T01:53:30;21.75;;;19.42;;
42682;SDS011;28293;50.930;3.464;2023-09-07T01:55:56;20.67;;;18.52;;
42682;SDS011;28293;50.930;3.464;2023-09-07T01:58:22;22.20;;;19.42;;
42682;SDS011;28293;50.930;3.464;2023-09-07T02:00:49;23.00;;;20.60;;
42682;SDS011;28293;50.930;3.464;2023-09-07T02:03:15;21.20;;;18.70;;
42682;SDS011;28293;50.930;3.464;2023-09-07T02:05:40;21.52;;;19.25;;
42682;SDS011;28293;50.930;3.464;2023-09-07T02:08:06;23.20;;;20.80;;
42682;SDS011;28293;50.930;3.464;2023-09-07T02:10:33;21.52;;;19.33;;
42682;SDS011;28293;50.930;3.464;2023-09-07T02:12:58;21.15;;;18.85;;
42682;SDS011;28293;50.930;3.464;2023-09-07T02:15:24;21.92;;;19.52;;
42682;SDS011;28293;50.930;3.464;2023-09-07T02:17:50;24.42;;;21.83;;
42682;SDS011;28293;50.930;3.464;2023-09-07T02:20:17;20.98;;;18.83;;
42682;SDS011;28293;50.930;3.464;2023-09-07T02:22:45;22.67;;;19.55;;
42682;SDS011;28293;50.930;3.464;2023-09-07T02:25:11;21.50;;;19.20;;
42682;SDS011;28293;50.930;3.464;2023-09-07T02:27:36;22.45;;;20.05;;
42682;SDS011;28293;50.930;3.464;2023-09-07T02:30:03;22.80;;;20.35;;
42682;SDS011;28293;50.930;3.464;2023-09-07T02:32:30;23.35;;;20.85;;
42682;SDS011;28293;50.930;3.464;2023-09-07T02:34:57;23.60;;;20.98;;
42682;SDS011;28293;50.930;3.464;2023-09-07T02:37:22;22.48;;;20.08;;
42682;SDS011;28293;50.930;3.464;2023-09-07T02:39:48;25.45;;;21.10;;
42682;SDS011;28293;50.930;3.464;2023-09-07T02:42:14;23.30;;;20.48;;
42682;SDS011;28293;50.930;3.464;2023-09-07T02:44:40;25.35;;;21.60;;
42682;SDS011;28293;50.930;3.464;2023-09-07T02:47:05;24.17;;;21.73;;
42682;SDS011;28293;50.930;3.464;2023-09-07T02:49:31;24.70;;;21.42;;
42682;SDS011;28293;50.930;3.464;2023-09-07T02:51:57;24.45;;;21.45;;
42682;SDS011;28293;50.930;3.464;2023-09-07T02:54:22;22.77;;;20.38;;
42682;SDS011;28293;50.930;3.464;2023-09-07T02:56:50;26.73;;;22.30;;
42682;SDS011;28293;50.930;3.464;2023-09-07T02:59:16;27.42;;;22.65;;
42682;SDS011;28293;50.930;3.464;2023-09-07T03:01:42;27.60;;;22.05;;
42682;SDS011;28293;50.930;3.464;2023-09-07T03:04:07;24.30;;;21.80;;
42682;SDS011;28293;50.930;3.464;2023-09-07T03:06:33;23.60;;;21.13;;
42682;SDS011;28293;50.930;3.464;2023-09-07T03:08:59;24.55;;;21.88;;
42682;SDS011;28293;50.930;3.464;2023-09-07T03:11:25;24.80;;;22.20;;
42682;SDS011;28293;50.930;3.464;2023-09-07T03:13:50;23.05;;;20.55;;
42682;SDS011;28293;50.930;3.464;2023-09-07T03:16:17;22.17;;;19.88;;
42682;SDS011;28293;50.930;3.464;2023-09-07T03:18:43;23.77;;;21.15;;
42682;SDS011;28293;50.930;3.464;2023-09-07T03:21:09;24.55;;;21.95;;
42682;SDS011;28293;50.930;3.464;2023-09-07T03:23:35;24.02;;;21.50;;
42682;SDS011;28293;50.930;3.464;2023-09-07T03:26:01;24.38;;;20.95;;
42682;SDS011;28293;50.930;3.464;2023-09-07T03:28:27;23.23;;;20.90;;
42682;SDS011;28293;50.930;3.464;2023-09-07T03:30:55;24.63;;;22.00;;
42682;SDS011;28293;50.930;3.464;2023-09-07T03:33:21;22.60;;;19.52;;
42682;SDS011;28293;50.930;3.464;2023-09-07T03:35:48;23.48;;;20.98;;
42682;SDS011;28293;50.930;3.464;2023-09-07T03:38:16;22.20;;;19.80;;
42682;SDS011;28293;50.930;3.464;2023-09-07T03:40:42;22.95;;;20.52;;
42682;SDS011;28293;50.930;3.464;2023-09-07T03:43:08;23.73;;;20.60;;
42682;SDS011;28293;50.930;3.464;2023-09-07T03:45:34;22.00;;;19.55;;
42682;SDS011;28293;50.930;3.464;2023-09-07T03:48:00;21.23;;;18.80;;
42682;SDS011;28293;50.930;3.464;2023-09-07T03:50:25;25.48;;;20.15;;
42682;SDS011;28293;50.930;3.464;2023-09-07T03:52:51;30.15;;;21.48;;
42682;SDS011;28293;50.930;3.464;2023-09-07T03:55:16;23.85;;;19.95;;
42682;SDS011;28293;50.930;3.464;2023-09-07T03:57:42;23.67;;;20.55;;
42682;SDS011;28293;50.930;3.464;2023-09-07T04:00:08;23.70;;;21.15;;
42682;SDS011;28293;50.930;3.464;2023-09-07T04:02:34;26.90;;;20.77;;
42682;SDS011;28293;50.930;3.464;2023-09-07T04:05:00;24.70;;;19.65;;
42682;SDS011;28293;50.930;3.464;2023-09-07T04:07:30;27.92;;;23.08;;
42682;SDS011;28293;50.930;3.464;2023-09-07T04:09:56;26.55;;;23.02;;
42682;SDS011;28293;50.930;3.464;2023-09-07T04:12:21;23.85;;;21.20;;
42682;SDS011;28293;50.930;3.464;2023-09-07T04:14:47;24.63;;;21.92;;
42682;SDS011;28293;50.930;3.464;2023-09-07T04:17:13;29.40;;;23.42;;
42682;SDS011;28293;50.930;3.464;2023-09-07T04:19:39;26.02;;;22.15;;
42682;SDS011;28293;50.930;3.464;2023-09-07T04:22:04;26.45;;;22.58;;
42682;SDS011;28293;50.930;3.464;2023-09-07T04:24:30;26.92;;;23.33;;
42682;SDS011;28293;50.930;3.464;2023-09-07T04:26:59;24.17;;;21.52;;
42682;SDS011;28293;50.930;3.464;2023-09-07T04:29:26;27.20;;;23.77;;
42682;SDS011;28293;50.930;3.464;2023-09-07T04:31:52;25.88;;;23.10;;
42682;SDS011;28293;50.930;3.464;2023-09-07T04:34:17;24.48;;;21.98;;
42682;SDS011;28293;50.930;3.464;2023-09-07T04:36:43;26.73;;;23.15;;
42682;SDS011;28293;50.930;3.464;2023-09-07T04:39:08;25.95;;;22.42;;
42682;SDS011;28293;50.930;3.464;2023-09-07T04:41:35;25.73;;;22.40;;
42682;SDS011;28293;50.930;3.464;2023-09-07T04:44:01;28.73;;;21.08;;
42682;SDS011;28293;50.930;3.464;2023-09-07T04:46:26;26.55;;;22.45;;
42682;SDS011;28293;50.930;3.464;2023-09-07T04:48:52;25.63;;;20.23;;
42682;SDS011;28293;50.930;3.464;2023-09-07T04:51:18;23.20;;;20.75;;
42682;SDS011;28293;50.930;3.464;2023-09-07T04:53:45;24.58;;;21.98;;
42682;SDS011;28293;50.930;3.464;2023-09-07T04:56:11;22.52;;;19.85;;
42682;SDS011;28293;50.930;3.464;2023-09-07T04:58:38;22.67;;;20.27;;
42682;SDS011;28293;50.930;3.464;2023-09-07T05:01:07;23.48;;;20.55;;
42682;SDS011;28293;50.930;3.464;2023-09-07T05:03:35;20.50;;;18.38;;
42682;SDS011;28293;50.930;3.464;2023-09-07T05:06:01;23.75;;;20.67;;
42682;SDS011;28293;50.930;3.464;2023-09-07T05:08:28;24.65;;;19.25;;
42682;SDS011;28293;50.930;3.464;2023-09-07T05:10:54;25.25;;;20.95;;
42682;SDS011;28293;50.930;3.464;2023-09-07T05:13:21;26.75;;;20.38;;
42682;SDS011;28293;50.930;3.464;2023-09-07T05:15:48;25.13;;;21.70;;
42682;SDS011;28293;50.930;3.464;2023-09-07T05:18:14;24.48;;;20.48;;
42682;SDS011;28293;50.930;3.464;2023-09-07T05:20:40;26.08;;;20.58;;
42682;SDS011;28293;50.930;3.464;2023-09-07T05:23:06;29.48;;;21.20;;
42682;SDS011;28293;50.930;3.464;2023-09-07T05:25:31;26.63;;;20.38;;
42682;SDS011;28293;50.930;3.464;2023-09-07T05:27:57;26.50;;;21.55;;
42682;SDS011;28293;50.930;3.464;2023-09-07T05:30:23;23.08;;;20.10;;
42682;SDS011;28293;50.930;3.464;2023-09-07T05:32:48;24.88;;;21.30;;
42682;SDS011;28293;50.930;3.464;2023-09-07T05:35:14;23.42;;;20.88;;
42682;SDS011;28293;50.930;3.464;2023-09-07T05:37:41;25.13;;;20.73;;
42682;SDS011;28293;50.930;3.464;2023-09-07T05:40:07;23.77;;;20.83;;
42682;SDS011;28293;50.930;3.464;2023-09-07T05:42:33;23.70;;;19.38;;
42682;SDS011;28293;50.930;3.464;2023-09-07T05:44:59;20.70;;;18.10;;
42682;SDS011;28293;50.930;3.464;2023-09-07T05:47:25;24.02;;;20.60;;
42682;SDS011;28293;50.930;3.464;2023-09-07T05:49:51;23.80;;;21.27;;
42682;SDS011;28293;50.930;3.464;2023-09-07T05:52:17;24.25;;;19.92;;
42682;SDS011;28293;50.930;3.464;2023-09-07T05:54:42;24.40;;;20.67;;
42682;SDS011;28293;50.930;3.464;2023-09-07T05:57:08;22.60;;;19.08;;
42682;SDS011;28293;50.930;3.464;2023-09-07T05:59:34;25.08;;;19.10;;
42682;SDS011;28293;50.930;3.464;2023-09-07T06:02:00;28.55;;;20.77;;
42682;SDS011;28293;50.930;3.464;2023-09-07T06:04:25;26.00;;;19.08;;
42682;SDS011;28293;50.930;3.464;2023-09-07T06:06:51;40.80;;;21.75;;
42682;SDS011;28293;50.930;3.464;2023-09-07T06:09:17;36.10;;;19.98;;
42682;SDS011;28293;50.930;3.464;2023-09-07T06:11:42;46.58;;;22.15;;
42682;SDS011;28293;50.930;3.464;2023-09-07T06:14:08;54.78;;;22.05;;
42682;SDS011;28293;50.930;3.464;2023-09-07T06:16:34;48.88;;;21.35;;
42682;SDS011;28293;50.930;3.464;2023-09-07T06:19:00;36.22;;;18.92;;
42682;SDS011;28293;50.930;3.464;2023-09-07T06:21:25;48.30;;;20.45;;
42682;SDS011;28293;50.930;3.464;2023-09-07T06:23:51;35.92;;;18.75;;
42682;SDS011;28293;50.930;3.464;2023-09-07T06:26:17;37.28;;;20.75;;
42682;SDS011;28293;50.930;3.464;2023-09-07T06:28:44;28.13;;;19.40;;
42682;SDS011;28293;50.930;3.464;2023-09-07T06:31:09;33.20;;;19.40;;
42682;SDS011;28293;50.930;3.464;2023-09-07T06:33:35;28.75;;;20.65;;
42682;SDS011;28293;50.930;3.464;2023-09-07T06:36:01;23.90;;;21.38;;
42682;SDS011;28293;50.930;3.464;2023-09-07T06:38:27;26.38;;;17.98;;
42682;SDS011;28293;50.930;3.464;2023-09-07T06:40:53;24.17;;;19.80;;
42682;SDS011;28293;50.930;3.464;2023-09-07T06:43:18;23.55;;;20.00;;
42682;SDS011;28293;50.930;3.464;2023-09-07T06:45:44;23.92;;;19.63;;
42682;SDS011;28293;50.930;3.464;2023-09-07T06:48:10;22.40;;;19.08;;
42682;SDS011;28293;50.930;3.464;2023-09-07T06:50:37;25.50;;;18.67;;
42682;SDS011;28293;50.930;3.464;2023-09-07T06:53:03;21.25;;;18.92;;
42682;SDS011;28293;50.930;3.464;2023-09-07T06:55:29;20.77;;;17.73;;
42682;SDS011;28293;50.930;3.464;2023-09-07T06:57:55;20.35;;;18.23;;
42682;SDS011;28293;50.930;3.464;2023-09-07T07:00:21;21.25;;;17.13;;
42682;SDS011;28293;50.930;3.464;2023-09-07T07:02:46;21.63;;;17.27;;
42682;SDS011;28293;50.930;3.464;2023-09-07T07:05:12;20.33;;;16.83;;
42682;SDS011;28293;50.930;3.464;2023-09-07T07:07:38;20.05;;;16.35;;
42682;SDS011;28293;50.930;3.464;2023-09-07T07:10:04;22.13;;;17.00;;
42682;SDS011;28293;50.930;3.464;2023-09-07T07:12:31;20.10;;;16.10;;
42682;SDS011;28293;50.930;3.464;2023-09-07T07:14:59;17.58;;;15.32;;
42682;SDS011;28293;50.930;3.464;2023-09-07T07:17:26;19.90;;;15.32;;
42682;SDS011;28293;50.930;3.464;2023-09-07T07:19:52;16.88;;;14.35;;
42682;SDS011;28293;50.930;3.464;2023-09-07T07:22:18;25.55;;;15.70;;
42682;SDS011;28293;50.930;3.464;2023-09-07T07:24:44;17.60;;;15.20;;
42682;SDS011;28293;50.930;3.464;2023-09-07T07:27:09;18.13;;;14.75;;
42682;SDS011;28293;50.930;3.464;2023-09-07T07:29:36;16.23;;;14.52;;
42682;SDS011;28293;50.930;3.464;2023-09-07T07:32:02;15.70;;;14.05;;
42682;SDS011;28293;50.930;3.464;2023-09-07T07:34:28;15.88;;;14.05;;
42682;SDS011;28293;50.930;3.464;2023-09-07T07:36:54;17.38;;;13.70;;
42682;SDS011;28293;50.930;3.464;2023-09-07T07:39:20;16.75;;;13.50;;
42682;SDS011;28293;50.930;3.464;2023-09-07T07:41:46;15.55;;;13.80;;
42682;SDS011;28293;50.930;3.464;2023-09-07T07:44:12;16.60;;;14.20;;
42682;SDS011;28293;50.930;3.464;2023-09-07T07:46:38;17.52;;;13.32;;
42682;SDS011;28293;50.930;3.464;2023-09-07T07:49:03;16.70;;;13.63;;
42682;SDS011;28293;50.930;3.464;2023-09-07T07:51:29;15.10;;;13.27;;
42682;SDS011;28293;50.930;3.464;2023-09-07T07:53:55;15.80;;;12.82;;
42682;SDS011;28293;50.930;3.464;2023-09-07T07:56:22;16.88;;;12.65;;
42682;SDS011;28293;50.930;3.464;2023-09-07T07:58:49;15.35;;;12.02;;
42682;SDS011;28293;50.930;3.464;2023-09-07T08:01:15;13.98;;;12.05;;
42682;SDS011;28293;50.930;3.464;2023-09-07T08:03:42;15.77;;;12.52;;
42682;SDS011;28293;50.930;3.464;2023-09-07T08:06:08;13.75;;;10.77;;
42682;SDS011;28293;50.930;3.464;2023-09-07T08:08:35;13.57;;;11.30;;
42682;SDS011;28293;50.930;3.464;2023-09-07T08:11:02;13.77;;;10.88;;
42682;SDS011;28293;50.930;3.464;2023-09-07T08:13:34;14.10;;;10.82;;
42682;SDS011;28293;50.930;3.464;2023-09-07T08:16:03;13.60;;;10.45;;
42682;SDS011;28293;50.930;3.464;2023-09-07T08:18:30;13.73;;;10.60;;
42682;SDS011;28293;50.930;3.464;2023-09-07T08:20:57;12.15;;;9.52;;
42682;SDS011;28293;50.930;3.464;2023-09-07T08:23:23;10.88;;;9.00;;
42682;SDS011;28293;50.930;3.464;2023-09-07T08:25:51;15.45;;;8.88;;
42682;SDS011;28293;50.930;3.464;2023-09-07T08:28:17;13.50;;;8.98;;
42682;SDS011;28293;50.930;3.464;2023-09-07T08:30:44;10.52;;;8.63;;
42682;SDS011;28293;50.930;3.464;2023-09-07T08:33:10;11.35;;;7.90;;
42682;SDS011;28293;50.930;3.464;2023-09-07T08:35:36;10.32;;;7.68;;
42682;SDS011;28293;50.930;3.464;2023-09-07T08:38:08;11.52;;;7.38;;
42682;SDS011;28293;50.930;3.464;2023-09-07T08:40:38;10.55;;;7.75;;
42682;SDS011;28293;50.930;3.464;2023-09-07T08:43:05;12.57;;;7.80;;
42682;SDS011;28293;50.930;3.464;2023-09-07T08:45:37;9.88;;;7.43;;
42682;SDS011;28293;50.930;3.464;2023-09-07T08:48:12;9.82;;;7.55;;
42682;SDS011;28293;50.930;3.464;2023-09-07T08:50:40;10.18;;;7.47;;
42682;SDS011;28293;50.930;3.464;2023-09-07T08:53:07;9.65;;;6.45;;
42682;SDS011;28293;50.930;3.464;2023-09-07T08:55:33;8.32;;;6.30;;
42682;SDS011;28293;50.930;3.464;2023-09-07T08:57:59;10.80;;;6.65;;
42682;SDS011;28293;50.930;3.464;2023-09-07T09:00:25;10.30;;;8.43;;
42682;SDS011;28293;50.930;3.464;2023-09-07T09:02:50;9.65;;;6.88;;
42682;SDS011;28293;50.930;3.464;2023-09-07T09:05:19;10.85;;;7.32;;
42682;SDS011;28293;50.930;3.464;2023-09-07T09:07:45;10.15;;;6.60;;
42682;SDS011;28293;50.930;3.464;2023-09-07T09:10:10;11.45;;;7.60;;
42682;SDS011;28293;50.930;3.464;2023-09-07T09:12:44;10.00;;;6.95;;
42682;SDS011;28293;50.930;3.464;2023-09-07T09:15:11;10.98;;;7.38;;
42682;SDS011;28293;50.930;3.464;2023-09-07T09:17:36;11.98;;;7.00;;
42682;SDS011;28293;50.930;3.464;2023-09-07T09:20:02;11.23;;;7.05;;
42682;SDS011;28293;50.930;3.464;2023-09-07T09:22:30;9.27;;;7.35;;
42682;SDS011;28293;50.930;3.464;2023-09-07T09:24:56;9.52;;;6.72;;
42682;SDS011;28293;50.930;3.464;2023-09-07T09:27:22;10.02;;;6.32;;
42682;SDS011;28293;50.930;3.464;2023-09-07T09:29:49;12.07;;;7.18;;
42682;SDS011;28293;50.930;3.464;2023-09-07T09:32:15;10.45;;;7.60;;
42682;SDS011;28293;50.930;3.464;2023-09-07T09:34:43;9.90;;;6.45;;
42682;SDS011;28293;50.930;3.464;2023-09-07T09:37:12;10.93;;;6.80;;
42682;SDS011;28293;50.930;3.464;2023-09-07T09:39:40;8.77;;;5.93;;
42682;SDS011;28293;50.930;3.464;2023-09-07T09:42:06;9.02;;;6.53;;
42682;SDS011;28293;50.930;3.464;2023-09-07T09:44:33;8.90;;;5.70;;
42682;SDS011;28293;50.930;3.464;2023-09-07T09:47:01;9.25;;;5.57;;
42682;SDS011;28293;50.930;3.464;2023-09-07T09:49:28;9.57;;;5.93;;
42682;SDS011;28293;50.930;3.464;2023-09-07T09:51:54;7.82;;;5.28;;
42682;SDS011;28293;50.930;3.464;2023-09-07T09:54:23;8.13;;;5.75;;
42682;SDS011;28293;50.930;3.464;2023-09-07T09:56:51;7.57;;;5.35;;
42682;SDS011;28293;50.930;3.464;2023-09-07T09:59:16;7.88;;;5.03;;
42682;SDS011;28293;50.930;3.464;2023-09-07T10:01:44;8.00;;;5.28;;
42682;SDS011;28293;50.930;3.464;2023-09-07T10:04:14;9.27;;;5.32;;
42682;SDS011;28293;50.930;3.464;2023-09-07T10:06:54;7.68;;;4.93;;
42682;SDS011;28293;50.930;3.464;2023-09-07T10:09:20;9.02;;;5.45;;
42682;SDS011;28293;50.930;3.464;2023-09-07T10:11:51;7.00;;;4.90;;
42682;SDS011;28293;50.930;3.464;2023-09-07T10:14:21;7.20;;;4.63;;
42682;SDS011;28293;50.930;3.464;2023-09-07T10:16:48;8.07;;;4.57;;
42682;SDS011;28293;50.930;3.464;2023-09-07T10:21:45;6.63;;;4.32;;
42682;SDS011;28293;50.930;3.464;2023-09-07T10:24:11;8.25;;;4.47;;
42682;SDS011;28293;50.930;3.464;2023-09-07T10:26:55;8.18;;;4.30;;
42682;SDS011;28293;50.930;3.464;2023-09-07T10:29:22;8.13;;;4.78;;
42682;SDS011;28293;50.930;3.464;2023-09-07T10:31:51;8.00;;;4.20;;
42682;SDS011;28293;50.930;3.464;2023-09-07T10:34:17;8.80;;;4.70;;
42682;SDS011;28293;50.930;3.464;2023-09-07T10:36:42;8.02;;;4.55;;
42682;SDS011;28293;50.930;3.464;2023-09-07T10:39:09;8.50;;;4.53;;
42682;SDS011;28293;50.930;3.464;2023-09-07T10:41:43;11.40;;;5.03;;
42682;SDS011;28293;50.930;3.464;2023-09-07T10:44:10;8.25;;;4.82;;
42682;SDS011;28293;50.930;3.464;2023-09-07T10:46:37;9.30;;;4.72;;
42682;SDS011;28293;50.930;3.464;2023-09-07T10:49:05;9.13;;;4.80;;
42682;SDS011;28293;50.930;3.464;2023-09-07T10:51:33;7.13;;;4.75;;
42682;SDS011;28293;50.930;3.464;2023-09-07T10:54:13;7.90;;;4.50;;
42682;SDS011;28293;50.930;3.464;2023-09-07T10:56:40;8.00;;;5.38;;
42682;SDS011;28293;50.930;3.464;2023-09-07T10:59:08;7.78;;;4.80;;
42682;SDS011;28293;50.930;3.464;2023-09-07T11:01:34;7.82;;;4.68;;
42682;SDS011;28293;50.930;3.464;2023-09-07T11:03:59;8.63;;;4.60;;
42682;SDS011;28293;50.930;3.464;2023-09-07T11:06:26;9.07;;;4.50;;
42682;SDS011;28293;50.930;3.464;2023-09-07T11:08:51;7.72;;;4.47;;
42682;SDS011;28293;50.930;3.464;2023-09-07T11:11:17;6.63;;;4.53;;
42682;SDS011;28293;50.930;3.464;2023-09-07T11:13:43;7.97;;;4.53;;
42682;SDS011;28293;50.930;3.464;2023-09-07T11:16:09;7.10;;;4.30;;
42682;SDS011;28293;50.930;3.464;2023-09-07T11:18:35;8.18;;;4.80;;
42682;SDS011;28293;50.930;3.464;2023-09-07T11:21:01;8.68;;;4.93;;
42682;SDS011;28293;50.930;3.464;2023-09-07T11:23:32;9.90;;;5.05;;
42682;SDS011;28293;50.930;3.464;2023-09-07T11:26:03;8.52;;;5.00;;
42682;SDS011;28293;50.930;3.464;2023-09-07T11:28:30;7.75;;;4.65;;
42682;SDS011;28293;50.930;3.464;2023-09-07T11:30:56;9.88;;;4.82;;
42682;SDS011;28293;50.930;3.464;2023-09-07T11:33:24;8.80;;;5.05;;
42682;SDS011;28293;50.930;3.464;2023-09-07T11:35:50;7.93;;;4.57;;
42682;SDS011;28293;50.930;3.464;2023-09-07T11:38:19;7.10;;;4.82;;
42682;SDS011;28293;50.930;3.464;2023-09-07T11:40:45;9.25;;;4.82;;
42682;SDS011;28293;50.930;3.464;2023-09-07T11:43:11;7.03;;;4.20;;
42682;SDS011;28293;50.930;3.464;2023-09-07T11:45:38;9.05;;;5.43;;
42682;SDS011;28293;50.930;3.464;2023-09-07T11:48:05;6.97;;;4.60;;
42682;SDS011;28293;50.930;3.464;2023-09-07T11:50:30;8.50;;;5.15;;
42682;SDS011;28293;50.930;3.464;2023-09-07T11:52:57;8.30;;;4.88;;
42682;SDS011;28293;50.930;3.464;2023-09-07T11:55:22;8.05;;;5.03;;
42682;SDS011;28293;50.930;3.464;2023-09-07T11:57:48;8.63;;;4.80;;
42682;SDS011;28293;50.930;3.464;2023-09-07T12:00:14;7.82;;;4.60;;
42682;SDS011;28293;50.930;3.464;2023-09-07T12:02:40;11.38;;;5.20;;
42682;SDS011;28293;50.930;3.464;2023-09-07T12:05:06;8.50;;;4.88;;
42682;SDS011;28293;50.930;3.464;2023-09-07T12:07:39;7.53;;;4.43;;
42682;SDS011;28293;50.930;3.464;2023-09-07T12:10:05;7.88;;;4.50;;
42682;SDS011;28293;50.930;3.464;2023-09-07T12:12:31;7.70;;;4.45;;
42682;SDS011;28293;50.930;3.464;2023-09-07T12:14:56;7.47;;;5.10;;
42682;SDS011;28293;50.930;3.464;2023-09-07T12:17:22;7.90;;;4.53;;
42682;SDS011;28293;50.930;3.464;2023-09-07T12:19:49;12.10;;;5.10;;
42682;SDS011;28293;50.930;3.464;2023-09-07T12:22:15;7.82;;;4.95;;
42682;SDS011;28293;50.930;3.464;2023-09-07T12:24:41;8.38;;;5.25;;
42682;SDS011;28293;50.930;3.464;2023-09-07T12:27:08;8.15;;;4.78;;
42682;SDS011;28293;50.930;3.464;2023-09-07T12:29:36;9.20;;;4.57;;
42682;SDS011;28293;50.930;3.464;2023-09-07T12:32:02;7.65;;;4.88;;
42682;SDS011;28293;50.930;3.464;2023-09-07T12:34:28;7.25;;;4.55;;
42682;SDS011;28293;50.930;3.464;2023-09-07T12:36:54;7.20;;;4.97;;
42682;SDS011;28293;50.930;3.464;2023-09-07T12:39:20;10.35;;;5.18;;
42682;SDS011;28293;50.930;3.464;2023-09-07T12:41:46;10.88;;;5.35;;
42682;SDS011;28293;50.930;3.464;2023-09-07T12:44:11;10.07;;;5.57;;
42682;SDS011;28293;50.930;3.464;2023-09-07T12:46:38;7.82;;;4.97;;
42682;SDS011;28293;50.930;3.464;2023-09-07T12:49:03;9.70;;;4.80;;
42682;SDS011;28293;50.930;3.464;2023-09-07T12:51:29;6.78;;;4.63;;
42682;SDS011;28293;50.930;3.464;2023-09-07T12:53:55;9.95;;;5.07;;
42682;SDS011;28293;50.930;3.464;2023-09-07T12:56:21;8.77;;;4.90;;
42682;SDS011;28293;50.930;3.464;2023-09-07T12:58:47;9.68;;;5.00;;
42682;SDS011;28293;50.930;3.464;2023-09-07T13:01:14;8.23;;;4.63;;
42682;SDS011;28293;50.930;3.464;2023-09-07T13:03:41;8.95;;;5.30;;
42682;SDS011;28293;50.930;3.464;2023-09-07T13:06:07;8.88;;;4.70;;
42682;SDS011;28293;50.930;3.464;2023-09-07T13:08:33;10.57;;;5.00;;
42682;SDS011;28293;50.930;3.464;2023-09-07T13:10:58;9.25;;;4.75;;
42682;SDS011;28293;50.930;3.464;2023-09-07T13:13:24;8.70;;;4.60;;
42682;SDS011;28293;50.930;3.464;2023-09-07T13:15:57;8.57;;;5.03;;
42682;SDS011;28293;50.930;3.464;2023-09-07T13:18:23;7.57;;;4.30;;
42682;SDS011;28293;50.930;3.464;2023-09-07T13:20:52;8.57;;;4.30;;
42682;SDS011;28293;50.930;3.464;2023-09-07T13:23:24;7.00;;;4.65;;
42682;SDS011;28293;50.930;3.464;2023-09-07T13:25:54;8.52;;;4.68;;
42682;SDS011;28293;50.930;3.464;2023-09-07T13:28:21;9.60;;;4.60;;
42682;SDS011;28293;50.930;3.464;2023-09-07T13:30:46;8.85;;;4.88;;
42682;SDS011;28293;50.930;3.464;2023-09-07T13:33:12;6.97;;;4.35;;
42682;SDS011;28293;50.930;3.464;2023-09-07T13:35:38;8.32;;;4.00;;
42682;SDS011;28293;50.930;3.464;2023-09-07T13:38:04;9.15;;;4.55;;
42682;SDS011;28293;50.930;3.464;2023-09-07T13:40:30;9.95;;;5.05;;
42682;SDS011;28293;50.930;3.464;2023-09-07T13:42:56;10.48;;;4.85;;
42682;SDS011;28293;50.930;3.464;2023-09-07T13:45:22;6.88;;;4.47;;
42682;SDS011;28293;50.930;3.464;2023-09-07T13:47:48;8.82;;;5.20;;
42682;SDS011;28293;50.930;3.464;2023-09-07T13:50:13;7.57;;;4.80;;
42682;SDS011;28293;50.930;3.464;2023-09-07T13:52:39;8.13;;;4.53;;
42682;SDS011;28293;50.930;3.464;2023-09-07T13:55:05;7.70;;;4.05;;
42682;SDS011;28293;50.930;3.464;2023-09-07T13:57:32;7.38;;;4.30;;
42682;SDS011;28293;50.930;3.464;2023-09-07T13:59:58;7.45;;;4.57;;
42682;SDS011;28293;50.930;3.464;2023-09-07T14:02:24;8.85;;;4.70;;
42682;SDS011;28293;50.930;3.464;2023-09-07T14:04:49;9.05;;;4.60;;
42682;SDS011;28293;50.930;3.464;2023-09-07T14:07:15;9.38;;;4.45;;
42682;SDS011;28293;50.930;3.464;2023-09-07T14:09:41;7.35;;;4.30;;
42682;SDS011;28293;50.930;3.464;2023-09-07T14:12:07;6.90;;;4.13;;
42682;SDS011;28293;50.930;3.464;2023-09-07T14:14:32;5.75;;;4.00;;
42682;SDS011;28293;50.930;3.464;2023-09-07T14:16:58;10.68;;;4.50;;
42682;SDS011;28293;50.930;3.464;2023-09-07T14:19:25;10.20;;;4.60;;
42682;SDS011;28293;50.930;3.464;2023-09-07T14:21:56;7.38;;;4.30;;
42682;SDS011;28293;50.930;3.464;2023-09-07T14:24:23;8.25;;;4.57;;
42682;SDS011;28293;50.930;3.464;2023-09-07T14:26:49;6.78;;;4.30;;
42682;SDS011;28293;50.930;3.464;2023-09-07T14:29:14;7.65;;;4.72;;